Time;durP1;ratioP1;P1;durP2;ratioP2;P2;SDS_P1;SDS_P2;PMS_P1;PMS_P2;Temp;Humidity;BMP_temperature;BMP_pressure;BME280_temperature;BME280_humidity;BME280_pressure;Samples;Min_cycle;Max_cycle;Signal;HPM_P1;HPM_P2
2023/12/17 00:00:35;;;;;;;26.05;8.55;;;;;;;6.54;100.00;102087.44;4927798;56;1138883;-79
2023/12/17 00:05:42;;;;;;;23.98;10.48;;;;;;;6.59;100.00;102079.36;4907751;58;1138923;-78
2023/12/17 00:10:48;;;;;;;17.77;8.00;;;;;;;6.64;100.00;102074.80;4883568;58;1140998;-77
2023/12/17 00:15:54;;;;;;;20.27;9.30;;;;;;;6.68;100.00;102078.59;4874862;57;1141070;-79
2023/12/17 00:21:00;;;;;;;26.23;10.63;;;;;;;6.75;100.00;102092.81;4970330;57;1141078;-78
2023/12/17 00:26:06;;;;;;;18.70;9.03;;;;;;;6.79;100.00;102090.48;5072874;57;1141250;-78
2023/12/17 00:31:11;;;;;;;19.37;9.43;;;;;;;6.81;100.00;102097.41;5092989;56;1140692;-77
2023/12/17 00:36:18;;;;;;;21.00;8.98;;;;;;;6.85;100.00;102109.53;5110377;57;1140904;-78
2023/12/17 00:41:23;;;;;;;20.93;9.20;;;;;;;6.87;100.00;102099.81;5086465;57;1138743;-78
2023/12/17 00:46:29;;;;;;;24.17;9.53;;;;;;;6.91;100.00;102109.74;5009390;58;1140790;-78
2023/12/17 00:51:35;;;;;;;20.48;9.58;;;;;;;6.93;100.00;102088.19;5009243;58;1140893;-79
2023/12/17 00:56:40;;;;;;;21.97;9.53;;;;;;;6.95;100.00;102092.48;5028942;56;1141210;-78
2023/12/17 01:01:46;;;;;;;23.63;10.17;;;;;;;6.97;100.00;102097.23;5009949;58;1140882;-79
2023/12/17 01:06:51;;;;;;;16.73;8.27;;;;;;;6.99;100.00;102112.51;5009244;58;1142881;-78
2023/12/17 01:11:59;;;;;;;19.20;9.80;;;;;;;7.01;100.00;102113.31;5030079;57;1140861;-78
2023/12/17 01:17:07;;;;;;;23.03;9.47;;;;;;;7.01;100.00;102115.94;5009502;57;1140974;-78
2023/12/17 01:22:12;;;;;;;20.97;10.23;;;;;;;7.03;100.00;102111.91;5009627;57;1140992;-78
2023/12/17 01:27:18;;;;;;;24.05;11.15;;;;;;;7.05;100.00;102112.26;5072888;57;1142940;-78
2023/12/17 01:32:24;;;;;;;17.83;10.57;;;;;;;7.08;100.00;102123.59;4972668;58;1143109;-79
2023/12/17 01:37:29;;;;;;;26.13;11.43;;;;;;;7.09;100.00;102116.95;5059092;57;1143293;-78
2023/12/17 01:42:35;;;;;;;20.57;10.18;;;;;;;7.11;100.00;102112.95;5014005;57;1143048;-77
2023/12/17 01:47:40;;;;;;;25.00;12.03;;;;;;;7.12;100.00;102131.31;4996866;58;1143249;-79
2023/12/17 01:52:46;;;;;;;24.70;12.13;;;;;;;7.13;100.00;102130.86;4990403;57;1142829;-78
2023/12/17 01:57:52;;;;;;;22.27;12.33;;;;;;;7.16;100.00;102124.17;5059999;57;1142655;-77
2023/12/17 02:02:58;;;;;;;22.20;11.20;;;;;;;7.18;100.00;102122.34;5079718;57;1142815;-79
2023/12/17 02:08:05;;;;;;;20.90;9.33;;;;;;;7.18;100.00;102117.91;5057858;57;1143110;-78
2023/12/17 02:13:10;;;;;;;31.67;12.67;;;;;;;7.19;100.00;102114.36;5060039;57;1140791;-79
2023/12/17 02:18:16;;;;;;;26.50;10.68;;;;;;;7.21;100.00;102115.63;5078596;57;1142780;-79
2023/12/17 02:23:21;;;;;;;20.40;12.57;;;;;;;7.22;100.00;102110.77;5059400;57;1142843;-77
2023/12/17 02:28:27;;;;;;;31.20;13.95;;;;;;;7.23;100.00;102119.92;4979926;57;1143043;-78
2023/12/17 02:33:33;;;;;;;21.70;12.23;;;;;;;7.25;100.00;102119.86;4997417;58;1142908;-79
2023/12/17 02:38:38;;;;;;;29.07;13.65;;;;;;;7.25;100.00;102112.83;4977854;58;1143205;-77
2023/12/17 02:43:44;;;;;;;27.73;12.43;;;;;;;7.26;100.00;102113.23;5041755;57;1142883;-77
2023/12/17 02:48:49;;;;;;;29.70;14.30;;;;;;;7.27;100.00;102111.45;5067565;57;1142904;-79
2023/12/17 02:53:55;;;;;;;26.77;9.77;;;;;;;7.28;100.00;102110.09;4977694;57;1142963;-77
2023/12/17 02:59:00;;;;;;;25.50;14.65;;;;;;;7.29;100.00;102120.16;4977469;58;1140875;-77
2023/12/17 03:04:06;;;;;;;26.97;14.00;;;;;;;7.29;100.00;102134.17;4996674;58;1142869;-78
2023/12/17 03:09:12;;;;;;;28.23;14.23;;;;;;;7.30;100.00;102118.78;4977373;57;1142880;-77
2023/12/17 03:14:19;;;;;;;26.53;15.07;;;;;;;7.31;100.00;102122.27;5008537;57;1143111;-79
2023/12/17 03:19:24;;;;;;;25.43;14.30;;;;;;;7.32;100.00;102120.91;5059238;57;1143091;-79
2023/12/17 03:24:30;;;;;;;24.40;13.17;;;;;;;7.35;100.00;102130.42;5061680;57;1142910;-78
2023/12/17 03:29:36;;;;;;;21.52;13.30;;;;;;;7.35;100.00;102137.86;4964549;58;1142999;-79
2023/12/17 03:34:41;;;;;;;25.93;14.67;;;;;;;7.39;100.00;102134.66;4986508;57;1142943;-78
2023/12/17 03:39:48;;;;;;;30.68;14.20;;;;;;;7.41;100.00;102134.16;5005872;58;1142903;-79
2023/12/17 03:44:54;;;;;;;26.17;12.10;;;;;;;7.42;100.00;102131.92;4997601;58;1142988;-77
2023/12/17 03:50:00;;;;;;;30.12;14.35;;;;;;;7.44;100.00;102141.08;4998760;57;1142937;-77
2023/12/17 03:55:06;;;;;;;24.00;12.10;;;;;;;7.45;100.00;102138.39;5071148;57;1143026;-79
2023/12/17 04:00:12;;;;;;;31.83;13.50;;;;;;;7.48;100.00;102136.95;5036313;57;1142962;-78
2023/12/17 04:05:18;;;;;;;21.00;11.50;;;;;;;7.49;100.00;102136.47;4998322;57;1143177;-78
2023/12/17 04:10:24;;;;;;;24.40;11.88;;;;;;;7.51;100.00;102141.22;5028160;57;1142959;-79
2023/12/17 04:15:29;;;;;;;21.90;12.07;;;;;;;7.50;100.00;102142.13;5101189;57;1143229;-77
2023/12/17 04:20:35;;;;;;;21.03;13.33;;;;;;;7.51;100.00;102147.34;5081781;57;1143000;-77
2023/12/17 04:25:40;;;;;;;18.80;12.20;;;;;;;7.53;100.00;102161.31;5081818;57;1142905;-78
2023/12/17 04:30:46;;;;;;;23.57;12.40;;;;;;;7.51;100.00;102164.45;5006704;58;1142976;-78
2023/12/17 04:35:52;;;;;;;15.77;10.93;;;;;;;7.51;100.00;102163.59;4876501;58;1143039;-77
2023/12/17 04:40:58;;;;;;;24.93;12.53;;;;;;;7.48;100.00;102159.34;4842286;59;1143221;-78
2023/12/17 04:46:04;;;;;;;23.13;13.03;;;;;;;7.46;100.00;102151.09;4996511;58;1142945;-79
2023/12/17 04:51:09;;;;;;;22.43;11.97;;;;;;;7.44;100.00;102159.50;5030195;57;1143051;-79
2023/12/17 04:56:15;;;;;;;20.60;11.60;;;;;;;7.41;100.00;102165.28;5056840;57;1142968;-79
2023/12/17 05:01:21;;;;;;;21.40;11.97;;;;;;;7.39;100.00;102167.56;5059318;57;1143228;-77
2023/12/17 05:06:26;;;;;;;25.60;10.87;;;;;;;7.33;100.00;102145.45;5078486;57;1143048;-77
2023/12/17 05:11:33;;;;;;;22.07;12.65;;;;;;;7.33;100.00;102145.45;5029011;57;1142804;-78
2023/12/17 05:16:39;;;;;;;20.70;12.97;;;;;;;7.36;100.00;102140.04;4977859;57;1142846;-77
2023/12/17 05:21:45;;;;;;;23.47;13.50;;;;;;;7.32;100.00;102128.80;4891631;59;1143148;-77
2023/12/17 05:26:50;;;;;;;23.73;12.93;;;;;;;7.29;100.00;102130.68;5008726;57;1142981;-77
2023/12/17 05:31:56;;;;;;;25.32;13.68;;;;;;;7.27;100.00;102135.14;5060243;57;1142867;-78
2023/12/17 05:37:01;;;;;;;22.70;13.93;;;;;;;7.25;100.00;102127.30;5089071;57;1142938;-79
2023/12/17 05:42:07;;;;;;;22.40;15.17;;;;;;;7.26;100.00;102129.48;5054489;57;1142955;-80
2023/12/17 05:47:12;;;;;;;22.87;13.67;;;;;;;7.26;100.00;102132.11;5035850;56;1142861;-77
2023/12/17 05:52:19;;;;;;;18.85;11.10;;;;;;;7.27;100.00;102129.88;5075962;57;1143416;-78
2023/12/17 05:57:25;;;;;;;25.67;14.80;;;;;;;7.27;100.00;102132.05;4903309;58;1142918;-78
2023/12/17 06:02:30;;;;;;;23.93;13.77;;;;;;;7.28;100.00;102145.61;5029249;56;1142982;-80
2023/12/17 06:07:36;;;;;;;24.47;13.85;;;;;;;7.30;100.00;102143.78;5056588;57;1143013;-77
2023/12/17 06:12:42;;;;;;;24.17;13.63;;;;;;;7.30;100.00;102143.78;5085356;57;1142972;-79
2023/12/17 06:17:48;;;;;;;24.05;14.78;;;;;;;7.31;100.00;102145.50;5062551;57;1143063;-80
2023/12/17 06:22:53;;;;;;;23.03;12.60;;;;;;;7.33;100.00;102140.19;5062745;57;1143177;-79
2023/12/17 06:27:59;;;;;;;20.90;14.10;;;;;;;7.35;100.00;102143.13;5066807;57;1142963;-77
2023/12/17 06:33:05;;;;;;;24.33;11.40;;;;;;;7.36;100.00;102125.11;4974907;58;1143015;-79
2023/12/17 06:38:10;;;;;;;22.20;11.23;;;;;;;7.39;100.00;102122.82;4855107;58;1142786;-80
2023/12/17 06:43:16;;;;;;;20.87;12.97;;;;;;;7.41;100.00;102123.16;5120176;56;1142972;-77
2023/12/17 06:48:21;;;;;;;18.43;12.40;;;;;;;7.43;100.00;102138.91;5092562;56;1142614;-79
2023/12/17 06:53:27;;;;;;;21.52;13.48;;;;;;;7.46;100.00;102132.66;5121216;56;1143384;-80
2023/12/17 06:58:33;;;;;;;25.20;13.50;;;;;;;7.49;100.00;102145.23;5129569;56;1142579;-79
2023/12/17 07:03:39;;;;;;;18.30;11.40;;;;;;;7.52;100.00;102146.43;5109026;56;1142800;-80
2023/12/17 07:08:45;;;;;;;21.48;12.45;;;;;;;7.56;100.00;102148.49;5122241;56;1142875;-80
2023/12/17 07:13:50;;;;;;;21.90;11.28;;;;;;;7.59;100.00;102154.96;5062260;57;1142928;-78
2023/12/17 07:18:56;;;;;;;20.70;10.70;;;;;;;7.62;100.00;102162.29;5042262;57;1142633;-78
2023/12/17 07:24:01;;;;;;;21.13;11.70;;;;;;;7.65;100.00;102162.60;5042313;57;1142886;-79
2023/12/17 07:29:07;;;;;;;18.00;11.57;;;;;;;7.70;100.00;102159.34;5061440;57;1143011;-79
2023/12/17 07:34:14;;;;;;;21.57;10.70;;;;;;;7.71;100.00;102161.92;5041805;57;1142973;-78
2023/12/17 07:39:20;;;;;;;19.67;11.90;;;;;;;7.73;100.00;102156.13;5082293;56;1143011;-78
2023/12/17 07:44:27;;;;;;;22.82;12.40;;;;;;;7.75;100.00;102158.70;4987006;56;1142924;-78
2023/12/17 07:49:32;;;;;;;23.07;13.17;;;;;;;7.75;100.00;102159.56;5036632;57;1142945;-77
2023/12/17 07:54:39;;;;;;;16.77;10.87;;;;;;;7.78;100.00;102159.05;4936490;57;1143171;-77
2023/12/17 07:59:47;;;;;;;17.90;11.53;;;;;;;7.79;100.00;102164.27;4935535;58;1142722;-77
2023/12/17 08:04:52;;;;;;;18.03;11.90;;;;;;;7.82;100.00;102162.80;4954183;57;1143239;-77
2023/12/17 08:09:58;;;;;;;17.53;10.33;;;;;;;7.84;100.00;102173.27;4956696;57;1142952;-77
2023/12/17 08:15:04;;;;;;;19.95;11.57;;;;;;;7.83;100.00;102164.52;5009011;57;1142976;-78
2023/12/17 08:20:10;;;;;;;17.47;11.40;;;;;;;7.86;100.00;102168.81;5020289;57;1142808;-77
2023/12/17 08:25:16;;;;;;;21.03;11.60;;;;;;;7.87;100.00;102163.48;5013574;57;1142888;-78
2023/12/17 08:30:21;;;;;;;18.20;10.77;;;;;;;7.87;100.00;102151.63;4990111;57;1143000;-78
2023/12/17 08:35:27;;;;;;;19.07;10.48;;;;;;;7.89;100.00;102139.26;5005792;57;1142998;-77
2023/12/17 08:40:37;;;;;;;20.73;11.37;;;;;;;7.87;100.00;102137.14;5021732;57;1142669;-77
2023/12/17 08:45:42;;;;;;;21.33;10.77;;;;;;;7.87;100.00;102128.37;5003724;57;1152202;-77
2023/12/17 08:50:48;;;;;;;21.10;13.28;;;;;;;7.86;100.00;102126.20;5057055;56;1143015;-77
2023/12/17 08:55:53;;;;;;;22.58;12.25;;;;;;;7.87;100.00;102126.60;5092819;57;1143142;-77
2023/12/17 09:00:59;;;;;;;18.00;12.77;;;;;;;7.88;100.00;102130.09;5072480;57;1142942;-78
2023/12/17 09:06:05;;;;;;;24.43;11.47;;;;;;;7.89;100.00;102130.50;5066618;56;1143176;-77
2023/12/17 09:11:11;;;;;;;18.73;8.83;;;;;;;7.92;100.00;102115.89;5071168;56;1142844;-76
2023/12/17 09:16:17;;;;;;;18.33;9.97;;;;;;;7.92;100.00;102118.52;5042588;56;1140690;-78
2023/12/17 09:21:22;;;;;;;19.27;11.80;;;;;;;7.96;100.00;102110.41;5069763;56;1140630;-77
2023/12/17 09:26:28;;;;;;;16.42;11.18;;;;;;;7.99;100.00;102105.48;5068109;57;1143303;-76
2023/12/17 09:31:34;;;;;;;20.17;12.73;;;;;;;8.01;100.00;102118.98;5092214;57;1142945;-76
2023/12/17 09:36:40;;;;;;;18.70;11.53;;;;;;;8.06;100.00;102132.84;5070572;57;1143046;-77
2023/12/17 09:41:46;;;;;;;16.65;7.97;;;;;;;8.09;100.00;102122.18;5061776;56;1142885;-76
2023/12/17 09:46:52;;;;;;;16.37;9.70;;;;;;;8.13;100.00;102134.28;5120862;56;1140977;-74
2023/12/17 09:52:11;;;;;;;17.10;10.40;;;;;;;8.17;100.00;102114.39;5062325;56;1140966;-80
2023/12/17 09:57:18;;;;;;;14.37;8.40;;;;;;;8.22;100.00;102108.48;5039969;56;1143211;-80
2023/12/17 10:02:24;;;;;;;17.23;11.23;;;;;;;8.25;100.00;102113.14;5042335;56;1140986;-77
2023/12/17 10:07:30;;;;;;;16.40;10.40;;;;;;;8.30;100.00;102107.67;5061904;56;1142983;-77
2023/12/17 10:12:36;;;;;;;20.13;12.00;;;;;;;8.33;100.00;102114.17;5109340;56;1142728;-79
2023/12/17 10:17:42;;;;;;;20.13;11.53;;;;;;;8.34;100.00;102104.89;5126540;56;1143268;-78
2023/12/17 10:23:05;;;;;;;22.45;12.43;;;;;;;8.37;100.00;102097.31;5146429;56;1143031;-76
2023/12/17 10:28:13;;;;;;;16.57;10.55;;;;;;;8.37;100.00;102090.72;5046991;56;1143126;-78
2023/12/17 10:33:22;;;;;;;19.63;10.43;;;;;;;8.39;100.00;102087.10;5040224;56;1143060;-77
2023/12/17 10:38:29;;;;;;;17.82;10.60;;;;;;;8.41;100.00;102093.14;5037459;57;1142887;-78
2023/12/17 10:43:37;;;;;;;19.97;10.57;;;;;;;8.44;100.00;102108.83;5060931;56;1143101;-78
2023/12/17 10:48:43;;;;;;;18.40;9.47;;;;;;;8.49;100.00;102126.23;5035960;56;1150974;-76
2023/12/17 10:53:49;;;;;;;17.10;8.10;;;;;;;8.51;100.00;102108.58;4989779;58;1140867;-80
2023/12/17 10:58:56;;;;;;;15.55;10.50;;;;;;;8.52;100.00;102101.92;5010203;58;1140995;-77
2023/12/17 11:04:03;;;;;;;13.37;8.23;;;;;;;8.56;100.00;102101.30;4990386;58;1143062;-79
2023/12/17 11:09:10;;;;;;;13.30;8.70;;;;;;;8.59;100.00;102089.30;5060783;57;1140885;-77
2023/12/17 11:14:17;;;;;;;17.53;8.90;;;;;;;8.61;100.00;102090.09;5092620;57;1140857;-79
2023/12/17 11:19:22;;;;;;;17.73;9.13;;;;;;;8.63;100.00;102072.42;5072461;57;1141079;-78
2023/12/17 11:24:28;;;;;;;12.50;8.63;;;;;;;8.66;100.00;102064.38;5059197;57;1140864;-80
2023/12/17 11:29:38;;;;;;;13.03;8.57;;;;;;;8.68;100.00;102073.95;5071671;57;1140841;-76
2023/12/17 11:34:48;;;;;;;12.93;8.73;;;;;;;8.71;100.00;102079.52;5068773;56;1140929;-78
2023/12/17 11:39:53;;;;;;;12.73;8.17;;;;;;;8.71;100.00;102059.27;5039732;56;1141027;-78
2023/12/17 11:44:59;;;;;;;14.87;9.17;;;;;;;8.74;100.00;102054.33;5038776;56;1141263;-78
2023/12/17 11:50:05;;;;;;;12.20;8.58;;;;;;;8.75;100.00;102058.22;4990485;57;1140849;-75
2023/12/17 11:55:11;;;;;;;13.33;8.63;;;;;;;8.75;100.00;102042.85;4909010;58;1140918;-80
2023/12/17 12:00:17;;;;;;;18.00;9.30;;;;;;;8.75;100.00;102022.61;5002221;57;1140846;-79
2023/12/17 12:05:22;;;;;;;20.93;11.73;;;;;;;8.76;100.00;102033.55;5049566;57;1140815;-79
2023/12/17 12:10:29;;;;;;;20.90;11.93;;;;;;;8.77;100.00;102041.00;5059124;57;1143086;-77
2023/12/17 12:15:35;;;;;;;18.53;10.10;;;;;;;8.77;100.00;102033.09;5054073;57;1143099;-75
2023/12/17 12:20:41;;;;;;;14.73;9.03;;;;;;;8.77;100.00;102045.81;4857810;59;1142858;-77
2023/12/17 12:25:47;;;;;;;17.15;8.98;;;;;;;8.76;100.00;102041.93;4946741;57;1140800;-78
2023/12/17 12:30:52;;;;;;;15.43;9.15;;;;;;;8.75;100.00;102049.45;4930476;58;1140782;-80
2023/12/17 12:36:07;;;;;;;13.45;9.10;;;;;;;8.75;100.00;102058.22;4996477;57;1140734;-77
2023/12/17 12:41:13;;;;;;;12.30;8.30;;;;;;;8.75;100.00;102055.58;5000330;57;1140883;-75
2023/12/17 12:46:19;;;;;;;13.13;7.87;;;;;;;8.75;100.00;102048.13;4863163;59;1141061;-76
2023/12/17 12:51:27;;;;;;;10.77;6.93;;;;;;;8.77;100.00;102055.52;5002469;57;1141089;-80
2023/12/17 12:56:33;;;;;;;14.28;7.80;;;;;;;8.78;100.00;102054.13;4830529;59;1141245;-80
2023/12/17 13:01:39;;;;;;;8.77;6.97;;;;;;;8.80;100.00;102063.30;5036006;57;1141142;-83
2023/12/17 13:06:45;;;;;;;10.37;6.87;;;;;;;8.81;100.00;102061.91;4872004;59;1147429;-78
2023/12/17 13:11:52;;;;;;;10.87;8.37;;;;;;;8.81;100.00;102056.63;5009050;56;1140936;-82
2023/12/17 13:16:57;;;;;;;9.60;6.85;;;;;;;8.83;100.00;102059.67;4905901;57;1141007;-80
2023/12/17 13:22:03;;;;;;;11.43;7.37;;;;;;;8.83;100.00;102057.88;5059034;57;1139001;-80
2023/12/17 13:27:09;;;;;;;9.87;6.43;;;;;;;8.84;100.00;102060.06;5044186;57;1141062;-80
2023/12/17 13:32:14;;;;;;;16.90;7.33;;;;;;;8.83;100.00;102067.58;5028737;58;1138838;-77
2023/12/17 13:37:20;;;;;;;12.17;8.00;;;;;;;8.80;100.00;102053.59;5067408;57;1140718;-81
2023/12/17 13:42:25;;;;;;;20.92;12.20;;;;;;;8.77;100.00;102051.09;5015613;56;1140846;-79
2023/12/17 13:47:31;;;;;;;10.37;6.77;;;;;;;8.75;100.00;102048.98;5049114;56;1143133;-78
2023/12/17 13:52:36;;;;;;;8.37;6.70;;;;;;;8.73;100.00;102052.16;4954657;57;1141089;-81
2023/12/17 13:57:43;;;;;;;10.93;7.60;;;;;;;8.73;100.00;102035.47;4889331;58;1138772;-78
2023/12/17 14:02:48;;;;;;;13.88;8.70;;;;;;;8.69;100.00;102024.69;4840788;59;1140773;-79
2023/12/17 14:07:54;;;;;;;10.95;7.45;;;;;;;8.68;100.00;102019.87;5003022;57;1140941;-85
2023/12/17 14:13:00;;;;;;;8.33;6.97;;;;;;;8.68;100.00;102017.23;5047796;57;1140724;-79
2023/12/17 14:18:06;;;;;;;10.03;6.63;;;;;;;8.68;100.00;102013.74;5072128;57;1138904;-81
2023/12/17 14:23:11;;;;;;;13.00;7.10;;;;;;;8.65;100.00;102003.33;5045128;57;1140949;-81
2023/12/17 14:28:17;;;;;;;10.33;7.47;;;;;;;8.67;100.00;101992.25;4994038;57;1140757;-80
2023/12/17 14:33:22;;;;;;;12.57;6.80;;;;;;;8.64;100.00;101999.83;4909005;58;1140955;-82
2023/12/17 14:38:28;;;;;;;6.20;5.23;;;;;;;8.63;100.00;102005.17;4993558;58;1140828;-83
2023/12/17 14:43:33;;;;;;;11.30;6.93;;;;;;;8.61;100.00;102014.94;4802563;59;1138938;-83
2023/12/17 14:48:39;;;;;;;11.30;6.03;;;;;;;8.61;100.00;102018.43;5000595;57;1140847;-83
2023/12/17 14:53:45;;;;;;;10.97;6.83;;;;;;;8.60;100.00;102027.73;4848477;59;1141389;-79
2023/12/17 14:58:56;;;;;;;12.68;7.25;;;;;;;8.58;100.00;102021.20;4860304;59;1140844;-79
2023/12/17 15:03:58;;;;;;;17.00;9.68;;;;;;;8.56;100.00;102018.23;4859595;59;1140912;-76
2023/12/17 15:09:04;;;;;;;13.67;8.20;;;;;;;8.52;100.00;102004.36;4879741;58;1140837;-77
2023/12/17 15:14:10;;;;;;;10.90;7.13;;;;;;;8.52;100.00;102004.36;4858589;58;1140862;-78
2023/12/17 15:19:15;;;;;;;13.97;10.37;;;;;;;8.50;100.00;102002.25;4804684;59;1140866;-76
2023/12/17 15:24:21;;;;;;;10.60;6.63;;;;;;;8.50;100.00;102002.70;4992422;57;1142928;-77
2023/12/17 15:29:27;;;;;;;9.60;6.27;;;;;;;8.47;100.00;102018.20;4900581;58;1140803;-82
2023/12/17 15:34:32;;;;;;;16.67;9.90;;;;;;;8.46;100.00;102034.94;4784871;60;1138882;-84
2023/12/17 15:39:38;;;;;;;11.08;6.50;;;;;;;8.43;100.00;102030.66;4977222;57;1140913;-83
2023/12/17 15:44:43;;;;;;;7.47;5.20;;;;;;;8.41;100.00;102025.91;5093419;57;1140975;-77
2023/12/17 15:49:49;;;;;;;12.05;6.53;;;;;;;8.35;100.00;102015.66;5001617;57;1138672;-76
2023/12/17 15:54:55;;;;;;;11.05;6.95;;;;;;;8.31;100.00;102017.13;4768645;59;1140830;-77
2023/12/17 16:00:08;;;;;;;9.65;7.33;;;;;;;8.29;100.00;102014.56;4839168;58;1140954;-81
2023/12/17 16:05:09;;;;;;;16.20;8.10;;;;;;;8.27;100.00;101992.69;4872380;57;1138847;-79
2023/12/17 16:10:15;;;;;;;10.27;7.50;;;;;;;8.22;100.00;102013.59;4866632;59;1140970;-85
2023/12/17 16:15:22;;;;;;;31.60;14.87;;;;;;;8.15;100.00;102020.91;4909242;58;1140983;-82
2023/12/17 16:20:27;;;;;;;10.70;7.47;;;;;;;8.14;100.00;102019.19;4855807;58;1143063;-80
2023/12/17 16:25:33;;;;;;;18.27;6.10;;;;;;;8.10;100.00;102017.14;4936253;58;1140708;-83
2023/12/17 16:30:40;;;;;;;10.28;7.25;;;;;;;8.07;100.00;102023.03;4913118;58;1140939;-77
2023/12/17 16:35:49;;;;;;;10.07;7.10;;;;;;;7.99;100.00;102010.17;4918470;58;1140982;-80
2023/12/17 16:40:53;;;;;;;7.30;5.58;;;;;;;7.98;100.00;102011.09;4855520;58;1140764;-81
2023/12/17 16:45:59;;;;;;;12.82;8.48;;;;;;;7.95;100.00;102009.90;4878727;58;1138931;-81
2023/12/17 16:51:07;;;;;;;16.57;8.53;;;;;;;7.90;100.00;101997.41;4866098;58;1140923;-83
2023/12/17 16:56:12;;;;;;;15.37;8.23;;;;;;;7.87;100.00;101987.00;4862303;58;1140990;-84
2023/12/17 17:01:18;;;;;;;11.03;7.27;;;;;;;7.80;100.00;101985.53;4790929;58;1140677;-81
2023/12/17 17:06:24;;;;;;;10.25;8.05;;;;;;;7.75;100.00;101963.82;4959725;57;1140846;-80
2023/12/17 17:11:30;;;;;;;14.07;8.80;;;;;;;7.69;100.00;101969.34;4976728;57;1140851;-75
2023/12/17 17:16:36;;;;;;;11.13;7.23;;;;;;;7.64;100.00;101961.63;4956279;57;1140826;-86
2023/12/17 17:21:43;;;;;;;10.57;7.60;;;;;;;7.56;100.00;101983.94;4963057;57;1140723;-81
2023/12/17 17:26:49;;;;;;;10.60;7.17;;;;;;;7.50;100.00;101951.28;5031779;57;1140840;-79
2023/12/17 17:31:54;;;;;;;10.20;6.87;;;;;;;7.44;100.00;101934.45;4998248;57;1140938;-81
2023/12/17 17:37:00;;;;;;;14.20;8.03;;;;;;;7.37;100.00;101952.25;4999753;57;1140805;-78
2023/12/17 17:42:06;;;;;;;14.87;9.40;;;;;;;7.31;100.00;101922.27;4982720;57;1140846;-77
2023/12/17 17:47:11;;;;;;;19.23;9.37;;;;;;;7.29;100.00;101930.22;4996890;57;1140595;-83
2023/12/17 17:52:19;;;;;;;15.27;9.87;;;;;;;7.22;100.00;101929.20;4941328;57;1141082;-75
2023/12/17 17:57:24;;;;;;;43.07;21.43;;;;;;;7.16;100.00;101932.10;4929891;58;1140925;-78
2023/12/17 18:02:30;;;;;;;12.70;8.37;;;;;;;7.11;100.00;101930.97;5009268;57;1142895;-78
2023/12/17 18:07:36;;;;;;;19.53;11.20;;;;;;;7.00;100.00;101909.51;5009068;57;1140815;-78
2023/12/17 18:12:41;;;;;;;17.57;9.97;;;;;;;6.92;100.00;101929.53;5007457;57;1142842;-77
2023/12/17 18:17:47;;;;;;;12.13;8.85;;;;;;;6.85;100.00;101929.84;5034682;57;1140946;-77
2023/12/17 18:22:53;;;;;;;12.80;8.55;;;;;;;6.79;100.00;101924.81;4823418;57;1140909;-77
2023/12/17 18:27:59;;;;;;;13.10;7.25;;;;;;;6.70;100.00;101911.13;4895694;58;1141113;-76
2023/12/17 18:33:05;;;;;;;14.95;9.03;;;;;;;6.63;100.00;101903.53;4926535;58;1140628;-76
2023/12/17 18:38:11;;;;;;;16.10;9.60;;;;;;;6.58;100.00;101906.78;4907293;58;1140602;-76
2023/12/17 18:43:16;;;;;;;13.97;9.20;;;;;;;6.49;100.00;101890.07;4897563;58;1140735;-78
2023/12/17 18:48:22;;;;;;;19.50;10.60;;;;;;;6.37;100.00;101893.17;4982211;58;1140957;-79
2023/12/17 18:53:27;;;;;;;12.73;8.57;;;;;;;6.37;100.00;101893.17;4908164;58;1143529;-78
2023/12/17 18:58:33;;;;;;;17.00;8.57;;;;;;;6.32;100.00;101903.84;4835797;58;1140779;-76
2023/12/17 19:03:39;;;;;;;18.27;8.33;;;;;;;6.27;100.00;101899.22;5002799;57;1141092;-75
2023/12/17 19:08:45;;;;;;;15.63;8.23;;;;;;;6.19;100.00;101893.41;5009370;57;1141063;-77
2023/12/17 19:13:51;;;;;;;17.73;8.53;;;;;;;6.14;100.00;101888.77;4998646;57;1138584;-79
2023/12/17 19:18:57;;;;;;;20.27;10.20;;;;;;;6.06;100.00;101886.45;5093303;56;1138841;-77
2023/12/17 19:24:04;;;;;;;15.70;7.97;;;;;;;6.00;100.00;101870.91;5099487;56;1141062;-79
2023/12/17 19:29:10;;;;;;;84.60;38.67;;;;;;;5.93;100.00;101883.88;5059364;56;1138851;-79
2023/12/17 19:34:24;;;;;;;38.55;11.15;;;;;;;5.89;100.00;101873.08;4940789;57;1140890;-79
2023/12/17 19:39:26;;;;;;;36.00;10.28;;;;;;;5.85;100.00;101874.06;4899534;58;1142827;-79
2023/12/17 19:44:31;;;;;;;23.38;9.10;;;;;;;5.83;100.00;101867.55;5050047;56;1143067;-78
2023/12/17 19:49:37;;;;;;;20.57;8.10;;;;;;;5.83;100.00;101871.94;5048408;56;1238851;-77
2023/12/17 19:54:45;;;;;;;32.38;13.58;;;;;;;5.80;100.00;101868.14;4989971;57;1138804;-78
2023/12/17 19:59:50;;;;;;;39.93;12.13;;;;;;;5.76;100.00;101848.16;4993159;57;1142968;-75
2023/12/17 20:04:55;;;;;;;14.13;6.33;;;;;;;5.74;100.00;101855.22;4976654;57;1142966;-78
2023/12/17 20:10:02;;;;;;;18.37;7.23;;;;;;;5.71;100.00;101858.81;4980155;57;1140827;-76
2023/12/17 20:15:08;;;;;;;16.10;7.23;;;;;;;5.71;100.00;101864.06;5063798;57;1140865;-80
2023/12/17 20:20:14;;;;;;;13.23;6.40;;;;;;;5.69;100.00;101855.38;5037658;57;1140821;-78
2023/12/17 20:25:20;;;;;;;10.67;6.13;;;;;;;5.70;100.00;101853.61;5031981;56;1140764;-72
2023/12/17 20:30:26;;;;;;;19.47;7.83;;;;;;;5.67;100.00;101854.58;5014228;56;1140812;-78
2023/12/17 20:35:35;;;;;;;8.23;5.73;;;;;;;5.64;100.00;101846.38;5035540;56;1141084;-79
2023/12/17 20:40:42;;;;;;;13.10;6.53;;;;;;;5.63;100.00;101864.80;5013413;56;1136718;-78
2023/12/17 20:45:47;;;;;;;10.97;5.20;;;;;;;5.61;100.00;101864.00;4987194;57;1140802;-78
2023/12/17 20:50:55;;;;;;;11.93;5.37;;;;;;;5.57;100.00;101864.55;5015823;57;1141091;-80
2023/12/17 20:56:01;;;;;;;16.67;7.10;;;;;;;5.57;100.00;101861.93;5068436;57;1140994;-77
2023/12/17 21:01:07;;;;;;;19.87;7.30;;;;;;;5.53;100.00;101855.06;5049056;57;1139470;-78
2023/12/17 21:06:12;;;;;;;7.43;4.87;;;;;;;5.50;100.00;101853.03;5075527;57;1185600;-77
2023/12/17 21:11:18;;;;;;;19.90;10.27;;;;;;;5.48;100.00;101847.84;5063554;57;1138793;-77
2023/12/17 21:16:25;;;;;;;14.07;7.33;;;;;;;5.44;100.00;101842.28;5054378;57;1140802;-77
2023/12/17 21:21:31;;;;;;;22.70;9.83;;;;;;;5.45;100.00;101837.89;5018980;56;1144864;-78
2023/12/17 21:26:36;;;;;;;17.27;6.90;;;;;;;5.43;100.00;101834.02;4985917;57;1141061;-77
2023/12/17 21:31:42;;;;;;;9.10;4.67;;;;;;;5.44;100.00;101838.80;4997333;57;1138759;-76
2023/12/17 21:36:47;;;;;;;10.60;5.50;;;;;;;5.43;100.00;101837.95;5038091;56;1138795;-76
2023/12/17 21:41:57;;;;;;;12.13;5.80;;;;;;;5.43;100.00;101820.03;5070136;56;1140750;-78
2023/12/17 21:47:00;;;;;;;12.93;5.22;;;;;;;5.40;100.00;101817.52;5006948;56;1138923;-79
2023/12/17 21:52:17;;;;;;;9.23;4.58;;;;;;;5.38;100.00;101800.52;5057857;56;1139370;-76
2023/12/17 21:57:19;;;;;;;7.12;4.12;;;;;;;5.39;100.00;101815.80;5052724;56;1136866;-77
2023/12/17 22:02:24;;;;;;;10.13;4.60;;;;;;;5.35;100.00;101816.84;5053162;56;1136694;-76
2023/12/17 22:07:30;;;;;;;11.03;5.05;;;;;;;5.36;100.00;101817.21;4996624;56;1139044;-78
2023/12/17 22:12:35;;;;;;;10.00;4.23;;;;;;;5.35;100.00;101817.66;4989378;57;1138979;-77
2023/12/17 22:17:42;;;;;;;14.53;5.70;;;;;;;5.36;100.00;101816.76;4974116;57;1138857;-77
2023/12/17 22:22:47;;;;;;;6.67;4.40;;;;;;;5.35;100.00;101801.10;4969016;57;1138611;-78
2023/12/17 22:27:53;;;;;;;5.37;3.60;;;;;;;5.37;100.00;101806.67;5063993;57;1136778;-77
2023/12/17 22:32:59;;;;;;;13.17;5.93;;;;;;;5.36;100.00;101804.95;5052659;57;1136680;-78
2023/12/17 22:38:04;;;;;;;14.98;4.60;;;;;;;5.38;100.00;101816.70;5029917;56;1139048;-78
2023/12/17 22:43:10;;;;;;;10.23;4.53;;;;;;;5.37;100.00;101810.60;5015724;56;1139047;-77
2023/12/17 22:48:15;;;;;;;22.50;6.10;;;;;;;5.37;100.00;101804.05;5050336;57;1138910;-77